Vanceboro, North Carolina
Current Conditions -  °F | °C
As of 3:54 PM on Tuesday 21 Oct 2014 (Local Time) from KEWN Reporting Station
Scattered Clouds Scattered Clouds  
Wind Chill: 78°   Ceiling: Unl
Heat Index: 79°   Visibility: 10mi
Dew Point: 50°   Wind: 8mph
Humidity: 37%   Direction: 220°SW
Pressure: 29.83"   Gusts: NA
Location:  35.31°N, 77.15°W
Report Text: KEWN 211954Z 22007KT 10SM SCT065 26/10 A2983 RMK AO2 SLP101 T02560100
Loading
Personal Weather Stations






























Interactive Weather Map
Tropical Storm Tracking
New forecast layout! Learn more

10-Day Weather Forecast

Advertisements
Track Severe Weather on mobile